Time;durP1;ratioP1;P1;durP2;ratioP2;P2;SDS_P1;SDS_P2;PMS_P1;PMS_P2;Temp;Humidity;BMP_temperature;BMP_pressure;BME280_temperature;BME280_humidity;BME280_pressure;Samples;Min_cycle;Max_cycle;Signal;HPM_P1;HPM_P2
2022/05/29 00:00:04;;;;;;;5.57;2.00;;;10.60;99.90;;;;;;4175299;28;20090;-61
2022/05/29 00:02:07;;;;;;;8.73;2.37;;;10.60;99.90;;;;;;4176171;28;20087;-61
2022/05/29 00:04:08;;;;;;;3.97;1.90;;;10.60;99.90;;;;;;4175501;28;21040;-61
2022/05/29 00:06:12;;;;;;;2.67;1.97;;;10.60;99.90;;;;;;4174667;28;20032;-60
2022/05/29 00:08:23;;;;;;;6.63;2.23;;;10.70;99.90;;;;;;4174441;28;20044;-60
2022/05/29 00:10:24;;;;;;;6.22;1.92;;;10.70;99.90;;;;;;4174488;28;20021;-60
2022/05/29 00:12:25;;;;;;;3.20;2.13;;;10.70;99.90;;;;;;4182787;28;20040;-61
2022/05/29 00:14:26;;;;;;;5.80;2.40;;;10.70;99.90;;;;;;4190500;28;20824;-60
2022/05/29 00:16:28;;;;;;;2.70;1.90;;;10.70;99.90;;;;;;4187084;28;20078;-61
2022/05/29 00:18:31;;;;;;;2.27;1.90;;;10.70;99.90;;;;;;4173532;28;20096;-61
2022/05/29 00:20:33;;;;;;;5.60;2.07;;;10.70;99.90;;;;;;4182239;28;20028;-61
2022/05/29 00:22:35;;;;;;;4.20;2.17;;;10.70;99.90;;;;;;4173901;28;20048;-60
2022/05/29 00:24:36;;;;;;;4.37;2.13;;;10.70;99.90;;;;;;4176859;28;20106;-61
2022/05/29 00:26:37;;;;;;;3.50;1.87;;;10.80;99.90;;;;;;4173891;28;20037;-58
2022/05/29 00:28:39;;;;;;;3.87;1.80;;;10.70;99.90;;;;;;4179257;28;20777;-60
2022/05/29 00:30:41;;;;;;;3.17;1.90;;;10.60;99.90;;;;;;4173206;28;20102;-59
2022/05/29 00:32:42;;;;;;;5.60;1.90;;;10.50;99.90;;;;;;4173001;28;20032;-61
2022/05/29 00:34:43;;;;;;;2.23;1.33;;;10.40;99.90;;;;;;4176973;28;20048;-61
2022/05/29 00:36:44;;;;;;;3.43;1.87;;;10.40;99.90;;;;;;4172975;28;20645;-60
2022/05/29 00:38:47;;;;;;;2.97;1.70;;;10.40;99.90;;;;;;4174695;28;20084;-58
2022/05/29 00:41:05;;;;;;;6.53;2.30;;;10.40;99.90;;;;;;4174248;28;20485;-61
2022/05/29 00:43:06;;;;;;;2.50;1.70;;;10.50;99.90;;;;;;4174127;28;20082;-60
2022/05/29 00:45:16;;;;;;;3.93;1.53;;;10.50;99.90;;;;;;4174756;28;20045;-61
2022/05/29 00:47:20;;;;;;;5.57;1.63;;;10.50;99.90;;;;;;4173885;28;20056;-62
2022/05/29 00:49:27;;;;;;;4.90;2.33;;;10.60;99.90;;;;;;4173581;28;20432;-62
2022/05/29 00:51:29;;;;;;;5.93;2.77;;;10.50;99.90;;;;;;4173783;28;20063;-60
2022/05/29 00:53:30;;;;;;;3.33;2.03;;;10.50;99.90;;;;;;4173414;28;20041;-61
2022/05/29 00:55:32;;;;;;;4.73;2.17;;;10.40;99.90;;;;;;4173355;28;20041;-61
2022/05/29 00:57:36;;;;;;;3.47;2.33;;;10.40;99.90;;;;;;4173770;28;20041;-61
2022/05/29 00:59:37;;;;;;;8.37;4.33;;;10.30;99.90;;;;;;4188635;28;20098;-60
2022/05/29 01:01:40;;;;;;;11.63;3.70;;;10.30;99.90;;;;;;4190808;28;20066;-61
2022/05/29 01:03:41;;;;;;;4.50;2.50;;;10.20;99.90;;;;;;4189846;28;20090;-62
2022/05/29 01:05:42;;;;;;;4.93;2.33;;;10.10;99.90;;;;;;4189694;28;20446;-62
2022/05/29 01:07:48;;;;;;;5.33;1.80;;;10.00;99.90;;;;;;4188115;28;20081;-62
2022/05/29 01:09:50;;;;;;;7.43;2.00;;;10.00;99.90;;;;;;4189878;28;20180;-61
2022/05/29 01:12:00;;;;;;;4.37;1.80;;;10.00;99.90;;;;;;4189762;28;20447;-61
2022/05/29 01:14:27;;;;;;;5.00;2.08;;;10.00;99.90;;;;;;4189913;28;20491;-61
2022/05/29 01:17:04;;;;;;;3.83;2.00;;;10.10;99.90;;;;;;4189514;28;20020;-61
2022/05/29 01:19:42;;;;;;;3.43;1.87;;;10.10;99.90;;;;;;4189735;28;20032;-61
2022/05/29 01:22:00;;;;;;;3.73;2.07;;;10.10;99.90;;;;;;4189846;28;20538;-61
2022/05/29 01:24:15;;;;;;;5.57;2.20;;;10.20;99.90;;;;;;4178236;28;20048;-61
2022/05/29 01:26:47;;;;;;;3.47;1.93;;;10.20;99.90;;;;;;4172946;28;20366;-61
2022/05/29 01:29:13;;;;;;;2.20;2.00;;;10.20;99.90;;;;;;4174146;28;20037;-60
2022/05/29 01:31:42;;;;;;;11.83;2.90;;;10.20;99.90;;;;;;4173275;28;20596;-60
2022/05/29 01:34:04;;;;;;;2.33;1.70;;;10.20;99.90;;;;;;4172484;28;20036;-60
2022/05/29 01:36:20;;;;;;;3.67;1.80;;;10.20;99.90;;;;;;4173034;28;20114;-60
2022/05/29 01:38:33;;;;;;;4.27;1.70;;;10.20;99.90;;;;;;4187717;28;20082;-61
2022/05/29 01:40:52;;;;;;;5.47;1.93;;;10.20;99.90;;;;;;4187208;28;20513;-61
2022/05/29 01:43:10;;;;;;;5.37;1.70;;;10.20;99.90;;;;;;4189395;28;21384;-60
2022/05/29 01:45:19;;;;;;;4.80;1.57;;;10.20;99.90;;;;;;4189830;28;20090;-60
2022/05/29 01:47:30;;;;;;;5.33;1.83;;;10.20;99.90;;;;;;4189071;28;20377;-61
2022/05/29 01:49:37;;;;;;;5.18;1.85;;;10.20;99.90;;;;;;4185411;28;20546;-60
2022/05/29 01:51:54;;;;;;;4.50;1.87;;;10.20;99.90;;;;;;4172894;28;20029;-61
2022/05/29 01:54:20;;;;;;;3.73;1.90;;;10.20;99.90;;;;;;4172838;28;20025;-61
2022/05/29 01:56:44;;;;;;;2.87;2.07;;;10.20;99.90;;;;;;4172951;28;20091;-61
2022/05/29 01:58:51;;;;;;;1.30;1.20;;;10.30;99.90;;;;;;4172677;28;20053;-62
2022/05/29 02:00:55;;;;;;;4.73;1.70;;;10.30;99.90;;;;;;4185881;28;20016;-60
2022/05/29 02:03:07;;;;;;;4.03;1.60;;;10.30;99.90;;;;;;4189626;28;20032;-60
2022/05/29 02:05:13;;;;;;;2.53;1.60;;;10.30;99.90;;;;;;4188762;28;20044;-63
2022/05/29 02:09:43;;;;;;;3.97;1.70;;;10.30;99.90;;;;;;4189843;28;20097;-61
2022/05/29 02:11:49;;;;;;;1.90;1.40;;;10.30;99.90;;;;;;4184741;28;20530;-61
2022/05/29 02:13:56;;;;;;;2.53;1.80;;;10.30;99.90;;;;;;4172683;28;20110;-61
2022/05/29 02:16:07;;;;;;;4.80;1.80;;;10.30;99.90;;;;;;4172538;28;20048;-60
2022/05/29 02:18:15;;;;;;;4.57;1.80;;;10.20;99.90;;;;;;4188506;28;20105;-60
2022/05/29 02:20:32;;;;;;;2.50;1.40;;;10.20;99.90;;;;;;4188683;28;20503;-60
2022/05/29 02:22:35;;;;;;;6.43;1.67;;;10.20;99.90;;;;;;4188836;28;20508;-60
2022/05/29 02:24:43;;;;;;;2.57;1.77;;;10.20;99.90;;;;;;4189212;28;20492;-61
2022/05/29 02:26:55;;;;;;;5.40;1.70;;;10.10;99.90;;;;;;4176269;28;20044;-61
2022/05/29 02:29:03;;;;;;;2.77;1.70;;;10.10;99.90;;;;;;4172573;28;20091;-61
2022/05/29 02:31:20;;;;;;;3.47;1.80;;;10.00;99.90;;;;;;4172444;28;20477;-61
2022/05/29 02:33:32;;;;;;;2.90;1.73;;;10.00;99.90;;;;;;4167121;28;20814;-61
2022/05/29 02:35:38;;;;;;;3.47;1.43;;;9.90;99.90;;;;;;4172343;28;20028;-60
2022/05/29 02:37:44;;;;;;;3.77;1.77;;;9.90;99.90;;;;;;4172187;28;20519;-61
2022/05/29 02:40:04;;;;;;;4.90;1.50;;;9.90;99.90;;;;;;4172290;28;20106;-62
2022/05/29 02:42:21;;;;;;;1.77;1.20;;;9.90;99.90;;;;;;4187173;28;20459;-61
2022/05/29 02:44:37;;;;;;;1.70;0.97;;;10.00;99.90;;;;;;4188560;28;20036;-61
2022/05/29 02:46:47;;;;;;;2.60;1.70;;;10.00;99.90;;;;;;4188509;28;20028;-62
2022/05/29 02:48:52;;;;;;;1.35;1.25;;;10.10;99.90;;;;;;4186055;28;20045;-62
2022/05/29 02:51:17;;;;;;;3.43;1.57;;;10.10;99.90;;;;;;4188944;28;20063;-61
2022/05/29 02:53:18;;;;;;;1.80;1.50;;;10.10;99.90;;;;;;4188631;28;20024;-61
2022/05/29 02:55:21;;;;;;;3.93;2.13;;;10.10;99.90;;;;;;4173594;28;20042;-61
2022/05/29 02:57:22;;;;;;;2.17;1.50;;;10.20;99.90;;;;;;4171858;28;20070;-60
2022/05/29 02:59:26;;;;;;;2.00;1.37;;;10.30;99.90;;;;;;4171794;28;20528;-61
2022/05/29 03:01:48;;;;;;;4.03;1.57;;;10.50;99.90;;;;;;4172556;28;20513;-61
2022/05/29 03:04:04;;;;;;;3.80;1.73;;;10.70;99.90;;;;;;4171751;28;20095;-61
2022/05/29 03:06:17;;;;;;;3.93;1.90;;;10.80;99.90;;;;;;4172076;28;20029;-60
2022/05/29 03:08:39;;;;;;;3.33;1.80;;;11.00;99.90;;;;;;4173209;28;20033;-60
2022/05/29 03:10:55;;;;;;;4.20;1.90;;;11.10;99.90;;;;;;4191572;28;20044;-61
2022/05/29 03:13:34;;;;;;;7.27;2.10;;;11.20;99.90;;;;;;4192095;28;20850;-62
2022/05/29 03:15:44;;;;;;;4.57;2.77;;;11.50;99.90;;;;;;4189771;28;20420;-61
2022/05/29 03:18:09;;;;;;;5.85;3.25;;;11.90;99.90;;;;;;4192156;28;20451;-60
2022/05/29 03:20:20;;;;;;;3.60;1.90;;;12.30;99.90;;;;;;4189749;28;20933;-62
2022/05/29 03:22:30;;;;;;;5.13;2.17;;;12.70;99.90;;;;;;4189930;28;20041;-59
2022/05/29 03:24:40;;;;;;;3.47;2.13;;;13.10;99.90;;;;;;4175395;28;21026;-61
2022/05/29 03:27:12;;;;;;;4.63;1.67;;;13.40;99.90;;;;;;4175167;28;20037;-61
2022/05/29 03:29:54;;;;;;;3.17;1.63;;;13.80;99.90;;;;;;4175217;28;20123;-60
2022/05/29 03:31:56;;;;;;;1.63;1.30;;;14.20;99.90;;;;;;4175716;28;20090;-61
2022/05/29 03:33:58;;;;;;;2.00;1.30;;;14.60;99.90;;;;;;4175138;28;20074;-60
2022/05/29 03:35:59;;;;;;;2.43;1.50;;;14.60;99.90;;;;;;4176005;28;20154;-60
2022/05/29 03:38:03;;;;;;;3.83;1.37;;;14.50;99.90;;;;;;4189042;28;20094;-60
2022/05/29 03:40:04;;;;;;;2.43;1.63;;;14.30;99.90;;;;;;4191556;28;20353;-60
2022/05/29 03:42:06;;;;;;;3.43;1.53;;;13.90;99.90;;;;;;4190829;28;20102;-61
2022/05/29 03:44:07;;;;;;;5.43;1.73;;;13.70;99.90;;;;;;4191660;28;20078;-61
2022/05/29 03:46:08;;;;;;;2.47;1.30;;;13.60;99.90;;;;;;4191222;28;20040;-61
2022/05/29 03:48:09;;;;;;;2.27;1.37;;;13.50;99.90;;;;;;4191455;28;20033;-62
2022/05/29 03:50:13;;;;;;;1.73;1.27;;;13.70;99.90;;;;;;4189135;28;20049;-61
2022/05/29 03:52:14;;;;;;;3.03;2.07;;;13.70;99.90;;;;;;4191319;28;20033;-61
2022/05/29 03:54:16;;;;;;;1.80;1.50;;;13.90;99.90;;;;;;4191204;28;20029;-60
2022/05/29 03:56:17;;;;;;;3.07;1.60;;;13.70;99.90;;;;;;4191291;28;20025;-61
2022/05/29 03:58:18;;;;;;;1.73;1.37;;;13.50;99.90;;;;;;4191083;28;20028;-64
2022/05/29 04:00:21;;;;;;;3.50;1.53;;;13.10;99.90;;;;;;4188905;28;20024;-62
2022/05/29 04:02:23;;;;;;;3.50;1.73;;;13.00;99.90;;;;;;4175069;28;20029;-61
2022/05/29 04:04:24;;;;;;;2.87;1.40;;;12.90;99.90;;;;;;4175907;28;20057;-60
2022/05/29 04:06:27;;;;;;;7.37;1.60;;;12.90;99.90;;;;;;4174825;28;20029;-61
2022/05/29 04:13:10;;;;;;;4.30;1.50;;;12.80;99.90;;;;;;4174296;28;20098;-60
2022/05/29 04:15:11;;;;;;;4.37;1.40;;;12.90;99.90;;;;;;4174373;28;20766;-61
2022/05/29 04:17:15;;;;;;;3.90;1.53;;;12.90;99.90;;;;;;4175954;28;20048;-61
2022/05/29 04:19:16;;;;;;;5.47;1.60;;;12.90;99.90;;;;;;4186414;28;20387;-61
2022/05/29 04:21:17;;;;;;;2.83;1.80;;;12.90;99.90;;;;;;4189754;28;20090;-61
2022/05/29 04:23:19;;;;;;;4.10;2.00;;;12.90;99.90;;;;;;4190158;28;20090;-60
2022/05/29 04:25:20;;;;;;;3.50;1.50;;;12.80;99.90;;;;;;4190756;28;20431;-61
2022/05/29 04:27:21;;;;;;;2.63;1.37;;;12.80;99.90;;;;;;4190234;28;20048;-61
2022/05/29 04:29:22;;;;;;;4.33;1.17;;;12.80;99.90;;;;;;4184257;28;20095;-61
2022/05/29 04:31:24;;;;;;;6.17;1.50;;;12.70;99.90;;;;;;4173924;28;20045;-61
2022/05/29 04:33:25;;;;;;;2.00;1.50;;;12.60;99.90;;;;;;4176930;28;20370;-61
2022/05/29 04:35:41;;;;;;;1.67;1.23;;;12.60;99.90;;;;;;4187712;28;20044;-61
2022/05/29 04:37:43;;;;;;;5.53;2.37;;;12.60;99.90;;;;;;4188849;28;20052;-61
2022/05/29 04:39:44;;;;;;;5.47;1.67;;;12.70;99.90;;;;;;4190756;28;20028;-60
2022/05/29 04:41:47;;;;;;;2.30;1.53;;;12.70;99.90;;;;;;4188447;28;20044;-60
2022/05/29 04:43:48;;;;;;;4.67;1.93;;;12.80;99.90;;;;;;4181645;28;20091;-61
2022/05/29 04:45:54;;;;;;;1.67;1.40;;;12.90;99.90;;;;;;4186167;28;20630;-63
2022/05/29 04:47:55;;;;;;;2.50;1.80;;;12.90;99.90;;;;;;4189960;28;20032;-60
2022/05/29 04:49:56;;;;;;;3.60;2.00;;;12.90;99.90;;;;;;4189292;28;20047;-60
2022/05/29 04:51:58;;;;;;;4.17;2.33;;;12.80;99.90;;;;;;4179894;28;20041;-60
2022/05/29 04:53:59;;;;;;;5.03;2.20;;;12.90;99.90;;;;;;4183143;28;20173;-58
2022/05/29 04:56:00;;;;;;;5.80;1.73;;;12.80;99.90;;;;;;4189867;28;20036;-62
2022/05/29 04:58:01;;;;;;;1.70;1.60;;;12.90;99.90;;;;;;4189262;28;20032;-61
2022/05/29 05:00:04;;;;;;;6.83;1.60;;;13.00;99.90;;;;;;4189939;28;20097;-61
2022/05/29 05:02:06;;;;;;;3.10;1.63;;;13.10;99.90;;;;;;4189766;28;20427;-61
2022/05/29 05:04:07;;;;;;;1.77;0.83;;;13.10;99.90;;;;;;4189569;28;20048;-61
2022/05/29 05:06:09;;;;;;;2.40;1.00;;;13.10;99.90;;;;;;4187980;28;20857;-60
2022/05/29 05:08:10;;;;;;;2.80;1.40;;;13.00;99.90;;;;;;4174291;28;20025;-61
2022/05/29 05:10:15;;;;;;;2.77;1.50;;;12.80;99.90;;;;;;4184280;28;20466;-62
2022/05/29 05:12:16;;;;;;;3.83;1.50;;;12.70;99.90;;;;;;4189240;28;20025;-62
2022/05/29 05:14:18;;;;;;;1.90;1.13;;;12.50;99.90;;;;;;4187676;28;20134;-60
2022/05/29 05:16:20;;;;;;;6.70;1.50;;;12.50;99.90;;;;;;4187808;28;20122;-62
2022/05/29 05:18:21;;;;;;;1.63;0.83;;;12.50;99.90;;;;;;4189469;28;20016;-62
2022/05/29 05:20:22;;;;;;;3.73;1.27;;;12.40;99.90;;;;;;4189346;28;20028;-61
2022/05/29 05:22:23;;;;;;;1.80;1.33;;;12.30;99.90;;;;;;4189106;28;20044;-60
2022/05/29 05:24:24;;;;;;;4.20;1.30;;;12.40;99.90;;;;;;4183636;28;20048;-61
2022/05/29 05:26:25;;;;;;;1.87;1.17;;;12.30;99.90;;;;;;4188781;28;20062;-60
2022/05/29 05:28:27;;;;;;;1.77;1.20;;;12.30;99.90;;;;;;4188887;28;20446;-60
2022/05/29 05:30:28;;;;;;;4.93;1.20;;;12.30;99.90;;;;;;4188895;28;20558;-61
2022/05/29 05:32:29;;;;;;;1.80;1.43;;;12.20;99.90;;;;;;4184755;28;20025;-61
2022/05/29 05:34:31;;;;;;;2.70;1.20;;;12.30;99.90;;;;;;4173149;28;20037;-62
2022/05/29 05:36:32;;;;;;;1.93;1.33;;;12.40;99.90;;;;;;4172863;28;20074;-62
2022/05/29 05:38:33;;;;;;;1.93;1.00;;;12.40;99.90;;;;;;4177055;28;20435;-61
2022/05/29 05:40:35;;;;;;;4.10;1.63;;;12.40;99.90;;;;;;4176316;28;20548;-62
2022/05/29 05:42:36;;;;;;;3.23;1.70;;;12.50;99.90;;;;;;4188140;28;20028;-60
2022/05/29 05:44:38;;;;;;;3.30;1.47;;;12.40;99.90;;;;;;4176629;28;20098;-61
2022/05/29 05:46:50;;;;;;;3.53;1.60;;;12.50;99.90;;;;;;4180199;28;20048;-61
2022/05/29 05:48:51;;;;;;;3.90;1.80;;;12.60;99.90;;;;;;4187222;28;20028;-60
2022/05/29 05:50:57;;;;;;;4.57;2.10;;;12.70;99.90;;;;;;4172444;28;21048;-62
2022/05/29 05:52:58;;;;;;;7.20;1.60;;;12.90;99.90;;;;;;4182921;28;20819;-62
2022/05/29 05:54:59;;;;;;;7.23;2.43;;;13.00;99.90;;;;;;4186461;28;20040;-61
2022/05/29 05:57:00;;;;;;;6.17;2.07;;;13.20;99.90;;;;;;4181405;28;20432;-61
2022/05/29 05:59:01;;;;;;;7.20;1.93;;;13.30;99.90;;;;;;4176039;28;20137;-61
2022/05/29 06:01:04;;;;;;;3.80;1.43;;;13.30;99.90;;;;;;4174483;28;20734;-62
2022/05/29 06:03:06;;;;;;;4.97;1.60;;;13.50;99.90;;;;;;4179836;28;20082;-60
2022/05/29 06:05:12;;;;;;;3.33;1.80;;;13.50;99.90;;;;;;4177446;28;20082;-61
2022/05/29 06:07:13;;;;;;;2.90;1.40;;;13.40;99.90;;;;;;4188022;28;20486;-60
2022/05/29 06:09:14;;;;;;;4.70;1.87;;;13.50;99.90;;;;;;4178919;28;20533;-61
2022/05/29 06:11:15;;;;;;;4.53;2.73;;;13.40;99.90;;;;;;4179459;28;20040;-61
2022/05/29 06:13:16;;;;;;;3.67;1.37;;;13.40;99.90;;;;;;4176817;28;20067;-61
2022/05/29 06:15:17;;;;;;;5.20;1.60;;;13.40;99.90;;;;;;4173363;28;20037;-61
2022/05/29 06:17:19;;;;;;;2.97;1.30;;;13.40;99.90;;;;;;4181370;28;20106;-63
2022/05/29 06:19:20;;;;;;;5.80;1.90;;;13.50;99.90;;;;;;4182097;28;20078;-61
2022/05/29 06:21:21;;;;;;;5.10;2.00;;;13.80;99.90;;;;;;4183156;28;20590;-63
2022/05/29 06:23:22;;;;;;;6.07;2.90;;;14.10;99.90;;;;;;4188516;28;20040;-62
2022/05/29 06:25:23;;;;;;;8.87;3.20;;;14.50;99.90;;;;;;4187830;28;20500;-61
2022/05/29 06:27:25;;;;;;;10.73;3.70;;;14.60;99.90;;;;;;4186142;28;20052;-62
2022/05/29 06:29:27;;;;;;;4.83;3.87;;;14.80;99.90;;;;;;4175369;28;20830;-61
2022/05/29 06:31:28;;;;;;;10.37;4.07;;;15.00;99.90;;;;;;4171983;28;20155;-62
2022/05/29 06:33:29;;;;;;;5.80;2.83;;;15.20;99.90;;;;;;4172803;28;20033;-61
2022/05/29 06:35:31;;;;;;;9.87;3.57;;;15.30;99.90;;;;;;4171512;28;20774;-61
2022/05/29 06:37:32;;;;;;;6.83;3.17;;;15.30;99.90;;;;;;4180464;28;20074;-61
2022/05/29 06:39:37;;;;;;;6.73;3.00;;;15.10;99.90;;;;;;4180495;28;20275;-61
2022/05/29 06:41:39;;;;;;;6.83;3.47;;;14.90;99.90;;;;;;4171742;28;20045;-59
2022/05/29 06:43:40;;;;;;;8.57;2.70;;;14.80;99.90;;;;;;4179975;28;20057;-61
2022/05/29 06:45:41;;;;;;;6.83;2.93;;;14.50;99.90;;;;;;4172227;28;20028;-62
2022/05/29 06:47:42;;;;;;;4.73;2.70;;;14.50;99.90;;;;;;4171665;28;20808;-62
2022/05/29 06:49:47;;;;;;;7.93;2.57;;;14.60;99.90;;;;;;4172148;28;20100;-61
2022/05/29 06:51:48;;;;;;;6.43;2.47;;;14.50;99.90;;;;;;4172037;28;20071;-62
2022/05/29 06:53:51;;;;;;;3.57;2.70;;;14.50;99.90;;;;;;4172712;28;20075;-61
2022/05/29 06:55:55;;;;;;;5.37;2.57;;;14.40;99.90;;;;;;4179964;28;20036;-62
2022/05/29 06:57:57;;;;;;;7.30;2.97;;;14.30;99.90;;;;;;4188597;28;20086;-61
2022/05/29 07:07:00;;;;;;;6.55;2.53;;;14.20;99.90;;;;;;4189011;28;20085;-60
2022/05/29 07:09:03;;;;;;;7.10;2.40;;;14.20;99.90;;;;;;4173988;28;20071;-60
2022/05/29 07:11:15;;;;;;;4.47;2.67;;;14.20;99.90;;;;;;4171569;28;20079;-61
2022/05/29 07:13:16;;;;;;;5.27;2.57;;;14.30;99.90;;;;;;4171565;28;20041;-58
2022/05/29 07:15:18;;;;;;;6.57;3.00;;;14.30;99.90;;;;;;4171805;28;20029;-60
2022/05/29 07:17:22;;;;;;;9.73;3.87;;;14.40;99.90;;;;;;4185805;28;20032;-60
2022/05/29 07:19:25;;;;;;;5.70;2.20;;;14.40;99.90;;;;;;4156908;28;20157;-61
2022/05/29 07:21:28;;;;;;;7.07;3.10;;;14.30;99.90;;;;;;4171445;28;20118;-61
2022/05/29 07:23:30;;;;;;;8.43;3.27;;;14.40;99.90;;;;;;4171390;28;20041;-63
2022/05/29 07:25:31;;;;;;;4.40;2.90;;;14.50;99.90;;;;;;4171884;28;20041;-59
2022/05/29 07:27:32;;;;;;;6.17;2.80;;;14.50;99.90;;;;;;4171756;28;20014;-59
2022/05/29 07:29:34;;;;;;;9.17;2.70;;;14.50;99.90;;;;;;4171149;28;20070;-59
2022/05/29 07:31:35;;;;;;;6.50;2.70;;;14.50;99.90;;;;;;4171632;28;20098;-60
2022/05/29 07:33:37;;;;;;;5.60;2.83;;;14.50;99.90;;;;;;4172178;28;20037;-62
2022/05/29 07:35:38;;;;;;;4.97;2.83;;;14.50;99.90;;;;;;4171168;28;20087;-66
2022/05/29 07:37:41;;;;;;;5.63;2.70;;;14.70;99.90;;;;;;4171995;28;20033;-61
2022/05/29 07:39:46;;;;;;;6.93;2.47;;;14.70;99.90;;;;;;4171092;28;20354;-61
2022/05/29 07:44:07;;;;;;;4.40;2.43;;;14.80;99.90;;;;;;4188432;28;20045;-64
2022/05/29 07:46:08;;;;;;;6.70;3.30;;;14.80;99.90;;;;;;4185921;28;20269;-61
2022/05/29 07:48:09;;;;;;;5.67;2.57;;;14.70;99.90;;;;;;4187361;28;20082;-60
2022/05/29 07:50:15;;;;;;;6.13;2.47;;;14.70;99.90;;;;;;4171477;28;20765;-65
2022/05/29 07:52:17;;;;;;;4.47;2.90;;;14.60;99.90;;;;;;4171586;28;20477;-62
2022/05/29 07:54:20;;;;;;;6.88;3.25;;;14.80;99.90;;;;;;4171504;28;20083;-61
2022/05/29 07:56:21;;;;;;;4.60;2.97;;;14.80;99.90;;;;;;4186130;28;20563;-62
2022/05/29 07:58:22;;;;;;;5.03;2.30;;;14.90;99.90;;;;;;4174555;28;20079;-62
2022/05/29 08:00:24;;;;;;;5.83;2.70;;;14.90;99.90;;;;;;4173993;28;20037;-62
2022/05/29 08:02:25;;;;;;;7.32;2.70;;;14.90;99.90;;;;;;4174504;28;20045;-64
2022/05/29 08:04:27;;;;;;;4.87;3.07;;;14.90;99.90;;;;;;4174878;28;20103;-62
2022/05/29 08:06:28;;;;;;;3.88;2.70;;;14.90;99.90;;;;;;4174290;28;20473;-66
2022/05/29 08:08:31;;;;;;;6.07;2.65;;;14.90;99.90;;;;;;4182530;28;20036;-63
2022/05/29 08:10:33;;;;;;;4.77;2.60;;;15.00;99.90;;;;;;4190658;28;20158;-65
2022/05/29 08:12:34;;;;;;;6.45;3.22;;;15.10;99.90;;;;;;4190227;28;20516;-62
2022/05/29 08:14:35;;;;;;;7.95;3.03;;;15.10;99.90;;;;;;4190034;28;20029;-66
2022/05/29 08:16:38;;;;;;;3.85;2.58;;;15.10;99.90;;;;;;4190191;28;20049;-62
2022/05/29 08:18:39;;;;;;;8.32;3.22;;;15.20;99.90;;;;;;4190432;28;20013;-63
2022/05/29 08:20:40;;;;;;;3.50;2.60;;;15.20;99.90;;;;;;4190472;28;20094;-63
2022/05/29 08:22:42;;;;;;;5.33;2.40;;;15.20;99.90;;;;;;4185888;28;20099;-61
2022/05/29 08:31:42;;;;;;;3.80;2.10;;;15.10;99.90;;;;;;4189843;28;20852;-65
2022/05/29 08:33:46;;;;;;;8.98;3.03;;;15.20;99.90;;;;;;4190184;28;20036;-65
2022/05/29 08:36:09;;;;;;;4.22;2.83;;;15.10;99.90;;;;;;4190338;28;20080;-62
2022/05/29 08:38:11;;;;;;;5.32;2.85;;;15.00;99.90;;;;;;4189216;28;20070;-65
2022/05/29 08:40:12;;;;;;;6.18;2.30;;;15.00;99.90;;;;;;4189854;28;20033;-61
2022/05/29 08:42:17;;;;;;;5.35;2.53;;;15.10;99.90;;;;;;4190076;28;20040;-61
2022/05/29 08:44:28;;;;;;;5.43;2.53;;;15.10;99.90;;;;;;4188284;28;20425;-61
2022/05/29 08:46:52;;;;;;;7.20;2.33;;;15.10;99.90;;;;;;4188149;28;20086;-61
2022/05/29 08:48:55;;;;;;;4.00;2.47;;;15.20;99.90;;;;;;4157380;28;20111;-62
2022/05/29 08:51:07;;;;;;;5.10;2.53;;;15.20;99.90;;;;;;4171369;28;20543;-63
2022/05/29 08:53:22;;;;;;;5.28;2.85;;;15.20;99.90;;;;;;4189527;28;20074;-62
2022/05/29 08:55:42;;;;;;;8.32;3.05;;;15.30;99.90;;;;;;4189777;28;20032;-63
2022/05/29 08:58:14;;;;;;;5.47;2.88;;;15.20;99.90;;;;;;4189493;28;20040;-62
2022/05/29 09:00:22;;;;;;;5.38;2.92;;;15.20;99.90;;;;;;4177017;28;20033;-63
2022/05/29 09:03:00;;;;;;;4.35;2.95;;;15.20;99.90;;;;;;4173741;28;20029;-62
2022/05/29 09:05:18;;;;;;;4.32;2.55;;;15.20;99.90;;;;;;4172465;28;20460;-62
2022/05/29 09:07:22;;;;;;;6.07;2.75;;;15.20;99.90;;;;;;4172685;28;20037;-65
2022/05/29 09:09:55;;;;;;;3.78;2.53;;;15.20;99.90;;;;;;4188004;28;20090;-63
2022/05/29 09:12:01;;;;;;;5.78;3.15;;;15.20;99.90;;;;;;4170720;28;20048;-65
2022/05/29 09:14:12;;;;;;;3.88;2.38;;;15.20;99.90;;;;;;4173235;28;20056;-64
2022/05/29 09:16:20;;;;;;;8.63;3.03;;;15.20;99.90;;;;;;4172735;28;20458;-65
2022/05/29 09:18:28;;;;;;;3.58;2.58;;;15.20;99.90;;;;;;4173219;28;20037;-64
2022/05/29 09:20:50;;;;;;;5.88;2.85;;;15.30;99.90;;;;;;4173266;28;20436;-63
2022/05/29 09:22:52;;;;;;;8.45;3.03;;;15.30;99.90;;;;;;4172769;28;20029;-65
2022/05/29 09:25:08;;;;;;;6.10;2.75;;;15.20;99.90;;;;;;4172966;28;20449;-63
2022/05/29 09:27:11;;;;;;;5.53;2.90;;;15.20;99.90;;;;;;4172705;28;20618;-63
2022/05/29 09:29:12;;;;;;;4.40;3.03;;;15.40;99.90;;;;;;4172986;28;20427;-63
2022/05/29 09:31:18;;;;;;;5.57;2.60;;;15.40;99.90;;;;;;4172825;28;20032;-64
2022/05/29 09:33:25;;;;;;;7.78;2.95;;;15.50;99.90;;;;;;4173244;28;20028;-63
2022/05/29 09:36:04;;;;;;;5.45;3.25;;;15.50;99.90;;;;;;4172677;28;20464;-65
2022/05/29 09:38:23;;;;;;;8.18;3.40;;;15.70;99.90;;;;;;4172602;28;20515;-64
2022/05/29 09:40:31;;;;;;;5.80;2.58;;;15.70;99.90;;;;;;4172760;28;20041;-64
2022/05/29 09:42:40;;;;;;;6.70;3.30;;;15.70;99.90;;;;;;4172484;28;20045;-63
2022/05/29 09:45:04;;;;;;;10.82;3.60;;;15.70;99.90;;;;;;4172120;28;20110;-63
2022/05/29 09:49:45;;;;;;;5.18;2.67;;;15.60;99.90;;;;;;4172305;28;20083;-63
2022/05/29 09:51:56;;;;;;;7.07;4.22;;;15.60;99.90;;;;;;4172402;28;20471;-64
2022/05/29 09:54:02;;;;;;;6.22;3.17;;;15.60;99.90;;;;;;4172307;28;20090;-64
2022/05/29 09:56:06;;;;;;;4.00;3.00;;;15.60;99.90;;;;;;4171997;28;20109;-62
2022/05/29 09:58:13;;;;;;;6.80;3.00;;;15.60;99.90;;;;;;4172478;28;20033;-62
2022/05/29 10:00:52;;;;;;;5.15;3.22;;;15.60;99.90;;;;;;4171909;28;20123;-63
2022/05/29 10:02:54;;;;;;;7.30;2.88;;;15.70;99.90;;;;;;4163385;28;20048;-64
2022/05/29 10:05:00;;;;;;;4.15;2.70;;;15.70;99.90;;;;;;4171774;28;20049;-63
2022/05/29 10:07:15;;;;;;;5.22;3.42;;;15.70;99.90;;;;;;4172011;28;20396;-63
2022/05/29 10:09:19;;;;;;;4.93;2.47;;;15.70;99.90;;;;;;4171936;28;20424;-63
2022/05/29 10:11:32;;;;;;;5.00;3.28;;;15.80;99.90;;;;;;4171876;28;20501;-62
2022/05/29 10:13:36;;;;;;;10.02;3.88;;;15.80;99.90;;;;;;4171748;28;20052;-62
2022/05/29 10:15:42;;;;;;;10.85;3.72;;;15.80;99.90;;;;;;4171913;28;20029;-66
2022/05/29 10:17:43;;;;;;;5.38;2.35;;;15.80;99.90;;;;;;4172410;28;20036;-63
2022/05/29 10:19:46;;;;;;;5.85;2.97;;;15.70;99.90;;;;;;4172217;28;20469;-63
2022/05/29 10:21:50;;;;;;;5.40;2.38;;;15.60;99.90;;;;;;4172522;28;20037;-64
2022/05/29 10:23:58;;;;;;;4.38;2.72;;;15.70;99.90;;;;;;4172182;28;20095;-63
2022/05/29 10:26:09;;;;;;;5.00;2.50;;;15.80;99.90;;;;;;4171481;28;20032;-62
2022/05/29 10:28:15;;;;;;;7.53;3.60;;;15.90;99.90;;;;;;4171634;28;20087;-65
2022/05/29 10:30:36;;;;;;;5.60;2.30;;;16.00;99.90;;;;;;4171767;28;20079;-63
2022/05/29 10:32:40;;;;;;;;;;;16.10;99.90;;;;;;4172161;28;20202;-63
2022/05/29 10:34:41;;;;;;;4.53;1.85;;;16.20;99.90;;;;;;4172298;28;20687;-63
2022/05/29 10:36:42;;;;;;;3.00;1.95;;;16.10;99.90;;;;;;4171480;28;20083;-63
2022/05/29 10:38:44;;;;;;;11.15;2.47;;;16.10;99.90;;;;;;4171986;28;20438;-62
2022/05/29 10:40:48;;;;;;;2.53;2.00;;;16.10;99.90;;;;;;4169653;28;20037;-63
2022/05/29 10:43:34;;;;;;;2.90;1.92;;;16.10;99.90;;;;;;4171837;28;20046;-64
2022/05/29 10:45:47;;;;;;;3.10;1.95;;;16.10;99.90;;;;;;4161051;28;20053;-64
2022/05/29 10:47:54;;;;;;;2.78;1.83;;;16.10;99.90;;;;;;4171634;28;20029;-63
2022/05/29 10:50:17;;;;;;;6.70;2.15;;;16.00;99.90;;;;;;4171775;28;20041;-64
2022/05/29 10:52:56;;;;;;;4.57;2.42;;;16.00;99.90;;;;;;4170893;28;20579;-63
2022/05/29 10:55:14;;;;;;;2.40;2.10;;;15.90;99.90;;;;;;4171390;28;20853;-63
2022/05/29 10:57:46;;;;;;;4.97;2.55;;;15.90;99.90;;;;;;4171796;28;20075;-64
2022/05/29 10:59:58;;;;;;;2.78;2.20;;;15.80;99.90;;;;;;4171837;28;20108;-64
2022/05/29 11:04:47;;;;;;;6.32;2.70;;;15.80;99.90;;;;;;4172275;28;20435;-64
2022/05/29 11:07:10;;;;;;;7.13;2.47;;;15.80;99.90;;;;;;4171416;28;20037;-62
2022/05/29 11:09:21;;;;;;;5.35;1.80;;;15.80;99.90;;;;;;4171779;28;20092;-63
2022/05/29 11:12:01;;;;;;;6.75;2.45;;;15.80;99.90;;;;;;4171581;28;20067;-65
2022/05/29 11:14:17;;;;;;;3.42;2.63;;;15.80;99.90;;;;;;4149654;28;20065;-63
2022/05/29 11:16:33;;;;;;;6.30;2.70;;;15.80;99.90;;;;;;4171799;28;20036;-64
2022/05/29 11:18:46;;;;;;;10.93;3.60;;;15.90;99.90;;;;;;4171739;28;20025;-65
2022/05/29 11:21:08;;;;;;;2.90;2.20;;;15.80;99.90;;;;;;4171334;28;20111;-63
2022/05/29 11:23:18;;;;;;;2.78;1.55;;;15.80;99.90;;;;;;4171670;28;20099;-62
2022/05/29 11:25:43;;;;;;;4.15;2.38;;;15.80;99.90;;;;;;4169960;28;20049;-63
2022/05/29 11:28:18;;;;;;;3.45;1.88;;;15.70;99.90;;;;;;4171426;28;20063;-64
2022/05/29 11:30:59;;;;;;;3.17;1.58;;;15.60;99.90;;;;;;4173071;28;20527;-62
2022/05/29 11:33:10;;;;;;;2.72;1.40;;;15.60;99.90;;;;;;4174878;28;20041;-63